sensor_id;sensor_type;location;lat;lon;timestamp;pressure;altitude;pressure_sealevel;temperature;humidity
9141;BME280;46330;50.822;7.126;2023-02-20T00:01:02;102040.72;;;5.35;100.00
9141;BME280;46330;50.822;7.126;2023-02-20T00:03:30;102037.41;;;5.41;100.00
9141;BME280;46330;50.822;7.126;2023-02-20T00:06:00;102037.41;;;5.42;100.00
9141;BME280;46330;50.822;7.126;2023-02-20T00:08:27;102040.00;;;5.42;100.00
9141;BME280;46330;50.822;7.126;2023-02-20T00:10:55;102029.56;;;5.39;100.00
9141;BME280;46330;50.822;7.126;2023-02-20T00:13:23;102031.19;;;5.36;100.00
9141;BME280;46330;50.822;7.126;2023-02-20T00:15:51;102029.41;;;5.32;100.00
9141;BME280;46330;50.822;7.126;2023-02-20T00:18:19;102030.91;;;5.24;100.00
9141;BME280;46330;50.822;7.126;2023-02-20T00:20:47;102031.72;;;5.21;100.00
9141;BME280;46330;50.822;7.126;2023-02-20T00:23:17;102021.25;;;5.18;100.00
9141;BME280;46330;50.822;7.126;2023-02-20T00:25:45;102022.81;;;5.12;100.00
9141;BME280;46330;50.822;7.126;2023-02-20T00:28:13;102025.41;;;5.10;100.00
9141;BME280;46330;50.822;7.126;2023-02-20T00:30:41;102017.47;;;5.04;100.00
9141;BME280;46330;50.822;7.126;2023-02-20T00:33:12;101999.13;;;4.98;100.00
9141;BME280;46330;50.822;7.126;2023-02-20T00:35:40;102003.09;;;4.82;100.00
9141;BME280;46330;50.822;7.126;2023-02-20T00:38:08;102008.06;;;4.76;100.00
9141;BME280;46330;50.822;7.126;2023-02-20T00:40:37;102004.66;;;4.77;100.00
9141;BME280;46330;50.822;7.126;2023-02-20T00:43:05;102002.88;;;4.75;100.00
9141;BME280;46330;50.822;7.126;2023-02-20T00:45:33;102006.34;;;4.75;100.00
9141;BME280;46330;50.822;7.126;2023-02-20T00:48:02;101995.81;;;4.69;100.00
9141;BME280;46330;50.822;7.126;2023-02-20T00:50:30;101987.72;;;4.57;100.00
9141;BME280;46330;50.822;7.126;2023-02-20T00:52:58;102001.44;;;4.55;100.00
9141;BME280;46330;50.822;7.126;2023-02-20T00:55:26;102003.84;;;4.47;100.00
9141;BME280;46330;50.822;7.126;2023-02-20T00:57:55;101993.47;;;4.47;100.00
9141;BME280;46330;50.822;7.126;2023-02-20T01:00:26;101995.09;;;4.44;100.00
9141;BME280;46330;50.822;7.126;2023-02-20T01:02:55;102001.03;;;4.40;100.00
9141;BME280;46330;50.822;7.126;2023-02-20T01:05:23;101995.03;;;4.41;100.00
9141;BME280;46330;50.822;7.126;2023-02-20T01:07:51;101991.63;;;4.43;100.00
9141;BME280;46330;50.822;7.126;2023-02-20T01:10:19;101988.16;;;4.43;100.00
9141;BME280;46330;50.822;7.126;2023-02-20T01:12:47;101995.66;;;4.32;100.00
9141;BME280;46330;50.822;7.126;2023-02-20T01:15:17;101994.03;;;4.36;100.00
9141;BME280;46330;50.822;7.126;2023-02-20T01:17:45;101999.13;;;4.32;100.00
9141;BME280;46330;50.822;7.126;2023-02-20T01:20:13;101991.44;;;4.36;100.00
9141;BME280;46330;50.822;7.126;2023-02-20T01:22:41;101985.47;;;4.38;100.00
9141;BME280;46330;50.822;7.126;2023-02-20T01:25:10;101972.53;;;4.40;100.00
9141;BME280;46330;50.822;7.126;2023-02-20T01:27:37;101978.59;;;4.39;100.00
9141;BME280;46330;50.822;7.126;2023-02-20T01:30:07;101967.44;;;4.43;100.00
9141;BME280;46330;50.822;7.126;2023-02-20T01:32:36;101958.03;;;4.46;100.00
9141;BME280;46330;50.822;7.126;2023-02-20T01:35:05;101965.00;;;4.47;100.00
9141;BME280;46330;50.822;7.126;2023-02-20T01:37:33;101973.84;;;4.55;100.00
9141;BME280;46330;50.822;7.126;2023-02-20T01:40:02;101964.44;;;4.59;100.00
9141;BME280;46330;50.822;7.126;2023-02-20T01:42:32;101964.31;;;4.54;100.00
9141;BME280;46330;50.822;7.126;2023-02-20T01:45:24;101962.59;;;4.55;100.00
9141;BME280;46330;50.822;7.126;2023-02-20T01:47:56;101966.19;;;4.60;100.00
9141;BME280;46330;50.822;7.126;2023-02-20T01:50:26;101950.50;;;4.55;100.00
9141;BME280;46330;50.822;7.126;2023-02-20T01:52:58;101949.69;;;4.56;100.00
9141;BME280;46330;50.822;7.126;2023-02-20T01:55:29;101952.19;;;4.53;100.00
9141;BME280;46330;50.822;7.126;2023-02-20T01:58:00;101957.47;;;4.58;100.00
9141;BME280;46330;50.822;7.126;2023-02-20T02:00:30;101948.00;;;4.58;100.00
9141;BME280;46330;50.822;7.126;2023-02-20T02:03:03;101942.97;;;4.63;100.00
9141;BME280;46330;50.822;7.126;2023-02-20T02:05:33;101942.91;;;4.61;100.00
9141;BME280;46330;50.822;7.126;2023-02-20T02:08:05;101919.41;;;4.55;100.00
9141;BME280;46330;50.822;7.126;2023-02-20T02:10:36;101921.22;;;4.58;100.00
9141;BME280;46330;50.822;7.126;2023-02-20T02:13:06;101924.59;;;4.55;100.00
9141;BME280;46330;50.822;7.126;2023-02-20T02:15:38;101922.09;;;4.58;100.00
9141;BME280;46330;50.822;7.126;2023-02-20T02:18:39;101923.88;;;4.61;100.00
9141;BME280;46330;50.822;7.126;2023-02-20T02:21:44;101914.38;;;4.60;100.00
9141;BME280;46330;50.822;7.126;2023-02-20T02:24:35;101924.75;;;4.60;100.00
9141;BME280;46330;50.822;7.126;2023-02-20T02:27:30;101917.94;;;4.63;100.00
9141;BME280;46330;50.822;7.126;2023-02-20T02:33:12;101905.66;;;4.58;100.00
9141;BME280;46330;50.822;7.126;2023-02-20T02:36:10;101919.50;;;4.58;100.00
9141;BME280;46330;50.822;7.126;2023-02-20T02:38:47;101913.50;;;4.61;100.00
9141;BME280;46330;50.822;7.126;2023-02-20T02:41:25;101912.66;;;4.60;100.00
9141;BME280;46330;50.822;7.126;2023-02-20T02:43:59;101914.31;;;4.57;100.00
9141;BME280;46330;50.822;7.126;2023-02-20T02:46:36;101912.50;;;4.54;100.00
9141;BME280;46330;50.822;7.126;2023-02-20T02:49:14;101905.44;;;4.49;100.00
9141;BME280;46330;50.822;7.126;2023-02-20T02:51:47;101898.47;;;4.46;100.00
9141;BME280;46330;50.822;7.126;2023-02-20T02:54:18;101896.59;;;4.41;100.00
9141;BME280;46330;50.822;7.126;2023-02-20T02:56:48;101896.59;;;4.41;100.00
9141;BME280;46330;50.822;7.126;2023-02-20T02:59:19;101893.81;;;4.33;100.00
9141;BME280;46330;50.822;7.126;2023-02-20T03:01:52;101888.63;;;4.33;100.00
9141;BME280;46330;50.822;7.126;2023-02-20T03:04:24;101878.09;;;4.25;100.00
9141;BME280;46330;50.822;7.126;2023-02-20T03:06:59;101873.56;;;4.17;100.00
9141;BME280;46330;50.822;7.126;2023-02-20T03:09:31;101875.19;;;4.15;100.00
9141;BME280;46330;50.822;7.126;2023-02-20T03:12:02;101865.69;;;4.14;100.00
9141;BME280;46330;50.822;7.126;2023-02-20T03:14:34;101862.94;;;4.08;100.00
9141;BME280;46330;50.822;7.126;2023-02-20T03:17:27;101861.34;;;4.13;100.00
9141;BME280;46330;50.822;7.126;2023-02-20T03:19:57;101855.34;;;4.14;100.00
9141;BME280;46330;50.822;7.126;2023-02-20T03:22:33;101851.72;;;4.07;100.00
9141;BME280;46330;50.822;7.126;2023-02-20T03:25:05;101851.50;;;4.00;100.00
9141;BME280;46330;50.822;7.126;2023-02-20T03:27:38;101844.56;;;3.99;100.00
9141;BME280;46330;50.822;7.126;2023-02-20T03:30:13;101844.53;;;3.97;100.00
9141;BME280;46330;50.822;7.126;2023-02-20T03:32:43;101848.81;;;3.97;100.00
9141;BME280;46330;50.822;7.126;2023-02-20T03:35:33;101844.41;;;3.93;100.00
9141;BME280;46330;50.822;7.126;2023-02-20T03:38:22;101849.56;;;3.93;100.00
9141;BME280;46330;50.822;7.126;2023-02-20T03:41:10;101846.97;;;3.93;100.00
9141;BME280;46330;50.822;7.126;2023-02-20T03:43:59;101842.69;;;3.93;100.00
9141;BME280;46330;50.822;7.126;2023-02-20T03:46:31;101848.63;;;3.89;100.00
9141;BME280;46330;50.822;7.126;2023-02-20T03:49:03;101845.09;;;3.86;100.00
9141;BME280;46330;50.822;7.126;2023-02-20T03:51:33;101854.56;;;3.85;100.00
9141;BME280;46330;50.822;7.126;2023-02-20T03:54:08;101850.03;;;3.78;100.00
9141;BME280;46330;50.822;7.126;2023-02-20T03:56:40;101847.28;;;3.72;100.00
9141;BME280;46330;50.822;7.126;2023-02-20T03:59:14;101855.94;;;3.72;100.00
9141;BME280;46330;50.822;7.126;2023-02-20T04:01:45;101847.25;;;3.70;100.00
9141;BME280;46330;50.822;7.126;2023-02-20T04:04:18;101840.31;;;3.69;100.00
9141;BME280;46330;50.822;7.126;2023-02-20T04:06:50;101852.38;;;3.69;100.00
9141;BME280;46330;50.822;7.126;2023-02-20T04:09:26;101853.25;;;3.69;100.00
9141;BME280;46330;50.822;7.126;2023-02-20T04:11:59;101856.75;;;3.71;100.00
9141;BME280;46330;50.822;7.126;2023-02-20T04:14:31;101854.97;;;3.69;100.00
9141;BME280;46330;50.822;7.126;2023-02-20T04:17:05;101849.78;;;3.69;100.00
9141;BME280;46330;50.822;7.126;2023-02-20T04:19:35;101848.72;;;3.61;100.00
9141;BME280;46330;50.822;7.126;2023-02-20T04:22:11;101849.63;;;3.63;100.00
9141;BME280;46330;50.822;7.126;2023-02-20T04:24:45;101840.00;;;3.59;100.00
9141;BME280;46330;50.822;7.126;2023-02-20T04:27:15;101829.63;;;3.57;100.00
9141;BME280;46330;50.822;7.126;2023-02-20T04:29:49;101838.22;;;3.56;100.00
9141;BME280;46330;50.822;7.126;2023-02-20T04:32:18;101826.03;;;3.52;100.00
9141;BME280;46330;50.822;7.126;2023-02-20T04:34:46;101828.59;;;3.51;100.00
9141;BME280;46330;50.822;7.126;2023-02-20T04:37:16;101834.72;;;3.54;100.00
9141;BME280;46330;50.822;7.126;2023-02-20T04:39:49;101828.44;;;3.46;100.00
9141;BME280;46330;50.822;7.126;2023-02-20T04:42:17;101825.75;;;3.43;100.00
9141;BME280;46330;50.822;7.126;2023-02-20T04:44:47;101824.94;;;3.44;100.00
9141;BME280;46330;50.822;7.126;2023-02-20T04:47:16;101834.38;;;3.42;100.00
9141;BME280;46330;50.822;7.126;2023-02-20T04:49:45;101824.72;;;3.37;100.00
9141;BME280;46330;50.822;7.126;2023-02-20T04:52:18;101815.88;;;3.29;100.00
9141;BME280;46330;50.822;7.126;2023-02-20T04:54:46;101824.59;;;3.32;100.00
9141;BME280;46330;50.822;7.126;2023-02-20T04:57:17;101822.13;;;3.37;100.00
9141;BME280;46330;50.822;7.126;2023-02-20T04:59:45;101822.03;;;3.34;100.00
9141;BME280;46330;50.822;7.126;2023-02-20T05:02:14;101816.78;;;3.31;100.00
9141;BME280;46330;50.822;7.126;2023-02-20T05:04:42;101822.81;;;3.30;100.00
9141;BME280;46330;50.822;7.126;2023-02-20T05:07:10;101817.66;;;3.31;100.00
9141;BME280;46330;50.822;7.126;2023-02-20T05:09:41;101820.16;;;3.28;100.00
9141;BME280;46330;50.822;7.126;2023-02-20T05:12:09;101825.31;;;3.27;100.00
9141;BME280;46330;50.822;7.126;2023-02-20T05:14:38;101822.63;;;3.23;100.00
9141;BME280;46330;50.822;7.126;2023-02-20T05:17:06;101818.28;;;3.22;100.00
9141;BME280;46330;50.822;7.126;2023-02-20T05:19:35;101824.31;;;3.23;100.00
9141;BME280;46330;50.822;7.126;2023-02-20T05:22:07;101821.75;;;3.23;100.00
9141;BME280;46330;50.822;7.126;2023-02-20T05:24:49;101812.03;;;3.16;100.00
9141;BME280;46330;50.822;7.126;2023-02-20T05:27:20;101817.19;;;3.14;100.00
9141;BME280;46330;50.822;7.126;2023-02-20T05:29:51;101802.53;;;3.15;100.00
9141;BME280;46330;50.822;7.126;2023-02-20T05:32:21;101803.38;;;3.14;100.00
9141;BME280;46330;50.822;7.126;2023-02-20T05:34:49;101802.50;;;3.13;100.00
9141;BME280;46330;50.822;7.126;2023-02-20T05:37:18;101799.75;;;3.09;100.00
9141;BME280;46330;50.822;7.126;2023-02-20T05:39:47;101788.59;;;3.10;100.00
9141;BME280;46330;50.822;7.126;2023-02-20T05:42:16;101789.50;;;3.12;100.00
9141;BME280;46330;50.822;7.126;2023-02-20T05:44:44;101784.44;;;3.15;100.00
9141;BME280;46330;50.822;7.126;2023-02-20T05:47:13;101794.66;;;3.10;100.00
9141;BME280;46330;50.822;7.126;2023-02-20T05:49:41;101788.63;;;3.11;100.00
9141;BME280;46330;50.822;7.126;2023-02-20T05:52:11;101786.84;;;3.09;100.00
9141;BME280;46330;50.822;7.126;2023-02-20T05:54:40;101775.50;;;3.04;100.00
9141;BME280;46330;50.822;7.126;2023-02-20T05:57:10;101779.78;;;3.03;100.00
9141;BME280;46330;50.822;7.126;2023-02-20T05:59:38;101772.88;;;3.02;100.00
9141;BME280;46330;50.822;7.126;2023-02-20T06:02:06;101775.44;;;3.02;100.00
9141;BME280;46330;50.822;7.126;2023-02-20T06:04:35;101772.88;;;3.02;100.00
9141;BME280;46330;50.822;7.126;2023-02-20T06:07:03;101777.91;;;2.98;100.00
9141;BME280;46330;50.822;7.126;2023-02-20T06:09:31;101778.03;;;3.02;100.00
9141;BME280;46330;50.822;7.126;2023-02-20T06:11:59;101782.34;;;3.02;100.00
9141;BME280;46330;50.822;7.126;2023-02-20T06:14:27;101779.69;;;2.99;100.00
9141;BME280;46330;50.822;7.126;2023-02-20T06:16:56;101783.00;;;2.95;100.00
9141;BME280;46330;50.822;7.126;2023-02-20T06:19:24;101782.25;;;2.99;100.00
9141;BME280;46330;50.822;7.126;2023-02-20T06:21:54;101783.91;;;2.97;100.00
9141;BME280;46330;50.822;7.126;2023-02-20T06:24:24;101777.09;;;2.99;100.00
9141;BME280;46330;50.822;7.126;2023-02-20T06:26:52;101778.81;;;3.00;100.00
9141;BME280;46330;50.822;7.126;2023-02-20T06:29:20;101778.03;;;3.02;100.00
9141;BME280;46330;50.822;7.126;2023-02-20T06:31:48;101772.94;;;3.05;100.00
9141;BME280;46330;50.822;7.126;2023-02-20T06:34:17;101771.25;;;3.06;100.00
9141;BME280;46330;50.822;7.126;2023-02-20T06:36:45;101776.47;;;3.07;100.00
9141;BME280;46330;50.822;7.126;2023-02-20T06:39:14;101779.16;;;3.10;100.00
9141;BME280;46330;50.822;7.126;2023-02-20T06:41:42;101780.13;;;3.14;100.00
9141;BME280;46330;50.822;7.126;2023-02-20T06:44:11;101778.34;;;3.13;100.00
9141;BME280;46330;50.822;7.126;2023-02-20T06:46:39;101771.47;;;3.13;100.00
9141;BME280;46330;50.822;7.126;2023-02-20T06:49:07;101769.06;;;3.19;100.00
9141;BME280;46330;50.822;7.126;2023-02-20T06:51:35;101771.91;;;3.29;100.00
9141;BME280;46330;50.822;7.126;2023-02-20T06:54:03;101776.38;;;3.34;100.00
9141;BME280;46330;50.822;7.126;2023-02-20T06:56:34;101772.97;;;3.35;100.00
9141;BME280;46330;50.822;7.126;2023-02-20T06:59:04;101765.31;;;3.40;100.00
9141;BME280;46330;50.822;7.126;2023-02-20T07:01:39;101777.66;;;3.48;100.00
9141;BME280;46330;50.822;7.126;2023-02-20T07:04:14;101764.84;;;3.53;100.00
9141;BME280;46330;50.822;7.126;2023-02-20T07:06:43;101765.16;;;3.65;100.00
9141;BME280;46330;50.822;7.126;2023-02-20T07:09:11;101758.56;;;3.76;100.00
9141;BME280;46330;50.822;7.126;2023-02-20T07:11:40;101763.84;;;3.80;100.00
9141;BME280;46330;50.822;7.126;2023-02-20T07:14:09;101759.78;;;3.89;100.00
9141;BME280;46330;50.822;7.126;2023-02-20T07:16:37;101770.00;;;4.17;100.00
9141;BME280;46330;50.822;7.126;2023-02-20T07:19:05;101765.47;;;4.46;100.00
9141;BME280;46330;50.822;7.126;2023-02-20T07:21:33;101763.22;;;4.59;100.00
9141;BME280;46330;50.822;7.126;2023-02-20T07:24:01;101775.84;;;4.46;100.00
9141;BME280;46330;50.822;7.126;2023-02-20T07:26:30;101763.97;;;4.54;100.00
9141;BME280;46330;50.822;7.126;2023-02-20T07:28:59;101769.31;;;4.61;100.00
9141;BME280;46330;50.822;7.126;2023-02-20T07:31:27;101769.94;;;4.88;100.00
9141;BME280;46330;50.822;7.126;2023-02-20T07:33:56;101781.59;;;5.07;100.00
9141;BME280;46330;50.822;7.126;2023-02-20T07:36:24;101777.25;;;5.06;100.00
9141;BME280;46330;50.822;7.126;2023-02-20T07:38:53;101781.53;;;5.06;100.00
9141;BME280;46330;50.822;7.126;2023-02-20T07:41:22;101779.91;;;5.11;100.00
9141;BME280;46330;50.822;7.126;2023-02-20T07:43:50;101787.03;;;5.21;100.00
9141;BME280;46330;50.822;7.126;2023-02-20T07:46:20;101784.50;;;5.22;100.00
9141;BME280;46330;50.822;7.126;2023-02-20T07:48:48;101793.38;;;5.33;100.00
9141;BME280;46330;50.822;7.126;2023-02-20T07:51:16;101799.66;;;5.45;100.00
9141;BME280;46330;50.822;7.126;2023-02-20T07:53:46;101784.50;;;5.67;100.00
9141;BME280;46330;50.822;7.126;2023-02-20T07:56:15;101788.47;;;5.92;99.46
9141;BME280;46330;50.822;7.126;2023-02-20T07:58:43;101791.09;;;6.44;98.72
9141;BME280;46330;50.822;7.126;2023-02-20T08:01:12;101790.19;;;6.98;96.36
9141;BME280;46330;50.822;7.126;2023-02-20T08:03:41;101793.50;;;7.52;93.92
9141;BME280;46330;50.822;7.126;2023-02-20T08:06:09;101794.53;;;7.68;92.77
9141;BME280;46330;50.822;7.126;2023-02-20T08:08:38;101792.78;;;8.57;87.37
9141;BME280;46330;50.822;7.126;2023-02-20T08:11:06;101789.44;;;8.77;85.53
9141;BME280;46330;50.822;7.126;2023-02-20T08:13:36;101791.63;;;9.78;78.75
9141;BME280;46330;50.822;7.126;2023-02-20T08:16:04;101793.50;;;10.47;74.18
9141;BME280;46330;50.822;7.126;2023-02-20T08:18:32;101790.00;;;10.51;72.72
9141;BME280;46330;50.822;7.126;2023-02-20T08:21:01;101791.78;;;10.37;72.29
9141;BME280;46330;50.822;7.126;2023-02-20T08:23:29;101794.34;;;10.11;73.51
9141;BME280;46330;50.822;7.126;2023-02-20T08:25:57;101795.19;;;9.98;74.37
9141;BME280;46330;50.822;7.126;2023-02-20T08:28:26;101798.69;;;10.07;75.30
9141;BME280;46330;50.822;7.126;2023-02-20T08:30:54;101799.44;;;9.65;75.50
9141;BME280;46330;50.822;7.126;2023-02-20T08:33:22;101804.66;;;9.61;76.62
9141;BME280;46330;50.822;7.126;2023-02-20T08:35:50;101802.91;;;9.55;75.92
9141;BME280;46330;50.822;7.126;2023-02-20T08:38:31;101815.78;;;9.17;77.24
9141;BME280;46330;50.822;7.126;2023-02-20T08:41:02;101809.88;;;9.65;77.21
9141;BME280;46330;50.822;7.126;2023-02-20T08:43:31;101808.22;;;9.87;75.64
9141;BME280;46330;50.822;7.126;2023-02-20T08:45:59;101801.28;;;10.12;75.12
9141;BME280;46330;50.822;7.126;2023-02-20T08:48:27;101805.72;;;10.23;74.09
9141;BME280;46330;50.822;7.126;2023-02-20T08:50:56;101801.25;;;9.80;74.92
9141;BME280;46330;50.822;7.126;2023-02-20T08:53:24;101799.41;;;9.49;75.53
9141;BME280;46330;50.822;7.126;2023-02-20T08:55:53;101795.13;;;9.77;75.48
9141;BME280;46330;50.822;7.126;2023-02-20T08:58:23;101802.88;;;9.48;76.58
9141;BME280;46330;50.822;7.126;2023-02-20T09:00:51;101804.75;;;9.81;75.54
9141;BME280;46330;50.822;7.126;2023-02-20T09:03:20;101807.25;;;9.52;76.02
9141;BME280;46330;50.822;7.126;2023-02-20T09:05:48;101817.53;;;9.20;77.61
9141;BME280;46330;50.822;7.126;2023-02-20T09:08:16;101813.00;;;8.86;78.86
9141;BME280;46330;50.822;7.126;2023-02-20T09:10:44;101812.19;;;8.96;79.36
9141;BME280;46330;50.822;7.126;2023-02-20T09:13:14;101823.47;;;8.92;79.00
9141;BME280;46330;50.822;7.126;2023-02-20T09:15:42;101825.50;;;9.47;78.30
9141;BME280;46330;50.822;7.126;2023-02-20T09:18:13;101829.81;;;9.36;77.15
9141;BME280;46330;50.822;7.126;2023-02-20T09:20:41;101834.06;;;9.22;78.61
9141;BME280;46330;50.822;7.126;2023-02-20T09:23:09;101834.38;;;9.92;76.45
9141;BME280;46330;50.822;7.126;2023-02-20T09:25:37;101830.75;;;9.56;76.47
9141;BME280;46330;50.822;7.126;2023-02-20T09:28:05;101830.75;;;9.55;77.59
9141;BME280;46330;50.822;7.126;2023-02-20T09:30:36;101839.56;;;9.87;75.63
9141;BME280;46330;50.822;7.126;2023-02-20T09:33:04;101837.97;;;10.53;73.52
9141;BME280;46330;50.822;7.126;2023-02-20T09:35:32;101844.91;;;10.16;73.29
9141;BME280;46330;50.822;7.126;2023-02-20T09:38:00;101837.09;;;10.36;73.20
9141;BME280;46330;50.822;7.126;2023-02-20T09:40:29;101836.22;;;10.68;71.10
9141;BME280;46330;50.822;7.126;2023-02-20T09:43:07;101832.53;;;11.53;68.30
9141;BME280;46330;50.822;7.126;2023-02-20T09:45:42;101833.03;;;12.24;65.85
9141;BME280;46330;50.822;7.126;2023-02-20T09:48:21;101830.00;;;12.76;63.45
9141;BME280;46330;50.822;7.126;2023-02-20T09:50:52;101821.53;;;12.45;63.54
9141;BME280;46330;50.822;7.126;2023-02-20T09:53:27;101821.94;;;12.94;62.13
9141;BME280;46330;50.822;7.126;2023-02-20T09:55:58;101821.25;;;12.75;61.14
9141;BME280;46330;50.822;7.126;2023-02-20T09:58:35;101822.47;;;13.32;61.06
9141;BME280;46330;50.822;7.126;2023-02-20T10:01:10;101810.25;;;13.25;60.02
9141;BME280;46330;50.822;7.126;2023-02-20T10:03:51;101810.81;;;13.52;59.46
9141;BME280;46330;50.822;7.126;2023-02-20T10:06:22;101811.34;;;13.03;60.71
9141;BME280;46330;50.822;7.126;2023-02-20T10:08:52;101803.59;;;13.69;59.52
9141;BME280;46330;50.822;7.126;2023-02-20T10:11:28;101813.66;;;13.35;59.52
9141;BME280;46330;50.822;7.126;2023-02-20T10:16:56;101802.88;;;13.56;59.80
9141;BME280;46330;50.822;7.126;2023-02-20T10:19:34;101786.06;;;14.79;54.44
9141;BME280;46330;50.822;7.126;2023-02-20T10:22:11;101787.94;;;14.19;55.20
9141;BME280;46330;50.822;7.126;2023-02-20T10:24:51;101785.94;;;13.78;57.11
9141;BME280;46330;50.822;7.126;2023-02-20T10:27:28;101770.94;;;13.85;58.24
9141;BME280;46330;50.822;7.126;2023-02-20T10:29:58;101785.38;;;14.16;55.07
9141;BME280;46330;50.822;7.126;2023-02-20T10:32:34;101779.97;;;14.24;56.66
9141;BME280;46330;50.822;7.126;2023-02-20T10:35:06;101777.50;;;14.68;54.55
9141;BME280;46330;50.822;7.126;2023-02-20T10:37:38;101774.28;;;13.94;55.35
9141;BME280;46330;50.822;7.126;2023-02-20T10:40:19;101775.03;;;14.58;54.57
9141;BME280;46330;50.822;7.126;2023-02-20T10:42:56;101770.50;;;15.12;53.99
9141;BME280;46330;50.822;7.126;2023-02-20T10:45:31;101769.19;;;14.40;55.46
9141;BME280;46330;50.822;7.126;2023-02-20T10:48:07;101766.94;;;15.16;54.12
9141;BME280;46330;50.822;7.126;2023-02-20T10:50:39;101769.44;;;15.63;51.89
9141;BME280;46330;50.822;7.126;2023-02-20T10:53:18;101770.59;;;15.07;52.44
9141;BME280;46330;50.822;7.126;2023-02-20T10:55:51;101764.00;;;16.09;50.16
9141;BME280;46330;50.822;7.126;2023-02-20T10:58:25;101770.25;;;17.06;47.32
9141;BME280;46330;50.822;7.126;2023-02-20T11:00:57;101762.69;;;16.62;49.19
9141;BME280;46330;50.822;7.126;2023-02-20T11:03:33;101758.88;;;15.65;51.37
9141;BME280;46330;50.822;7.126;2023-02-20T11:06:05;101746.75;;;16.30;50.31
9141;BME280;46330;50.822;7.126;2023-02-20T11:08:36;101749.31;;;15.97;49.82
9141;BME280;46330;50.822;7.126;2023-02-20T11:11:20;101745.25;;;16.20;50.71
9141;BME280;46330;50.822;7.126;2023-02-20T11:13:49;101752.41;;;16.14;50.82
9141;BME280;46330;50.822;7.126;2023-02-20T11:16:21;101752.50;;;15.33;52.54
9141;BME280;46330;50.822;7.126;2023-02-20T11:19:05;101752.00;;;15.13;54.02
9141;BME280;46330;50.822;7.126;2023-02-20T11:21:36;101744.88;;;14.75;53.87
9141;BME280;46330;50.822;7.126;2023-02-20T11:24:30;101738.88;;;15.54;53.34
9141;BME280;46330;50.822;7.126;2023-02-20T11:27:05;101746.72;;;15.16;53.35
9141;BME280;46330;50.822;7.126;2023-02-20T11:29:42;101741.66;;;15.47;52.99
9141;BME280;46330;50.822;7.126;2023-02-20T11:32:22;101730.78;;;15.21;54.06
9141;BME280;46330;50.822;7.126;2023-02-20T11:38:26;101722.31;;;15.86;51.05
9141;BME280;46330;50.822;7.126;2023-02-20T11:41:02;101712.59;;;15.08;54.16
9141;BME280;46330;50.822;7.126;2023-02-20T11:43:33;101717.47;;;15.27;54.93
9141;BME280;46330;50.822;7.126;2023-02-20T11:46:12;101709.81;;;15.15;53.13
9141;BME280;46330;50.822;7.126;2023-02-20T11:48:58;101702.41;;;15.33;52.85
9141;BME280;46330;50.822;7.126;2023-02-20T11:51:33;101700.59;;;15.35;53.90
9141;BME280;46330;50.822;7.126;2023-02-20T11:54:15;101688.84;;;15.51;51.90
9141;BME280;46330;50.822;7.126;2023-02-20T11:56:54;101681.13;;;15.81;52.29
9141;BME280;46330;50.822;7.126;2023-02-20T11:59:27;101680.75;;;15.94;52.07
9141;BME280;46330;50.822;7.126;2023-02-20T12:02:10;101666.78;;;15.54;53.22
9141;BME280;46330;50.822;7.126;2023-02-20T12:04:38;101666.19;;;16.15;52.71
9141;BME280;46330;50.822;7.126;2023-02-20T12:07:24;101668.97;;;16.43;52.20
9141;BME280;46330;50.822;7.126;2023-02-20T12:09:56;101660.94;;;16.13;51.89
9141;BME280;46330;50.822;7.126;2023-02-20T12:12:27;101652.97;;;15.81;53.64
9141;BME280;46330;50.822;7.126;2023-02-20T12:14:57;101644.50;;;15.69;53.27
9141;BME280;46330;50.822;7.126;2023-02-20T12:17:34;101638.03;;;15.42;53.86
9141;BME280;46330;50.822;7.126;2023-02-20T12:20:08;101634.59;;;15.77;52.62
9141;BME280;46330;50.822;7.126;2023-02-20T12:22:43;101633.94;;;15.69;52.93
9141;BME280;46330;50.822;7.126;2023-02-20T12:25:20;101626.19;;;15.63;53.22
9141;BME280;46330;50.822;7.126;2023-02-20T12:28:02;101627.75;;;15.70;54.13
9141;BME280;46330;50.822;7.126;2023-02-20T12:30:43;101618.44;;;16.23;52.32
9141;BME280;46330;50.822;7.126;2023-02-20T12:33:40;101627.47;;;15.80;52.96
9141;BME280;46330;50.822;7.126;2023-02-20T12:36:23;101627.78;;;15.68;54.46
9141;BME280;46330;50.822;7.126;2023-02-20T12:38:58;101629.97;;;15.86;54.46
9141;BME280;46330;50.822;7.126;2023-02-20T12:41:30;101613.88;;;15.62;54.51
9141;BME280;46330;50.822;7.126;2023-02-20T12:44:25;101611.50;;;15.51;55.10
9141;BME280;46330;50.822;7.126;2023-02-20T12:47:01;101613.47;;;15.78;54.68
9141;BME280;46330;50.822;7.126;2023-02-20T12:49:46;101604.16;;;15.64;54.92
9141;BME280;46330;50.822;7.126;2023-02-20T12:52:38;101613.31;;;15.84;55.11
9141;BME280;46330;50.822;7.126;2023-02-20T12:55:19;101614.94;;;15.54;55.25
9141;BME280;46330;50.822;7.126;2023-02-20T12:57:54;101604.13;;;15.28;56.21
9141;BME280;46330;50.822;7.126;2023-02-20T13:00:32;101602.06;;;15.78;55.21
9141;BME280;46330;50.822;7.126;2023-02-20T13:03:09;101587.34;;;15.31;56.51
9141;BME280;46330;50.822;7.126;2023-02-20T13:05:41;101591.03;;;15.60;57.01
9141;BME280;46330;50.822;7.126;2023-02-20T13:08:11;101584.59;;;16.06;55.55
9141;BME280;46330;50.822;7.126;2023-02-20T13:10:51;101584.41;;;15.43;56.24
9141;BME280;46330;50.822;7.126;2023-02-20T13:13:20;101580.69;;;15.15;57.45
9141;BME280;46330;50.822;7.126;2023-02-20T13:15:56;101582.38;;;15.17;57.67
9141;BME280;46330;50.822;7.126;2023-02-20T13:18:33;101589.03;;;14.96;58.53
9141;BME280;46330;50.822;7.126;2023-02-20T13:21:05;101574.72;;;14.67;59.42
9141;BME280;46330;50.822;7.126;2023-02-20T13:23:36;101573.00;;;14.66;60.51
9141;BME280;46330;50.822;7.126;2023-02-20T13:29:14;101578.03;;;13.86;62.79
9141;BME280;46330;50.822;7.126;2023-02-20T13:31:46;101579.09;;;13.76;62.92
9141;BME280;46330;50.822;7.126;2023-02-20T13:34:41;101568.97;;;13.52;64.51
9141;BME280;46330;50.822;7.126;2023-02-20T13:40:41;101568.13;;;13.51;64.78
9141;BME280;46330;50.822;7.126;2023-02-20T13:43:28;101572.81;;;13.32;65.34
9141;BME280;46330;50.822;7.126;2023-02-20T13:46:25;101562.56;;;13.16;65.95